createdAt,value
2022-07-28T00:01:09.261Z,1.60
2022-07-28T00:03:37.275Z,1.33
2022-07-28T00:06:03.877Z,1.40
2022-07-28T00:08:30.817Z,1.63
2022-07-28T00:10:57.519Z,1.52
2022-07-28T00:13:24.222Z,1.50
2022-07-28T00:15:52.209Z,1.30
2022-07-28T00:18:18.894Z,1.35
2022-07-28T00:20:45.535Z,1.70
2022-07-28T00:23:12.148Z,1.15
2022-07-28T00:25:38.795Z,1.13
2022-07-28T00:28:06.619Z,1.52
2022-07-28T00:30:33.301Z,1.50
2022-07-28T00:33:00.288Z,1.40
2022-07-28T00:35:30.814Z,1.60
2022-07-28T00:37:58.345Z,1.45
2022-07-28T00:40:45.410Z,1.23
2022-07-28T00:43:12.053Z,1.30
2022-07-28T00:45:38.842Z,1.67
2022-07-28T00:48:05.616Z,1.40
2022-07-28T00:50:33.793Z,1.45
2022-07-28T00:53:01.211Z,1.33
2022-07-28T00:55:28.069Z,1.50
2022-07-28T00:57:54.639Z,1.58
2022-07-28T01:00:21.400Z,1.58
2022-07-28T01:02:48.196Z,1.52
2022-07-28T01:05:15.401Z,1.40
2022-07-28T01:07:46.574Z,1.30
2022-07-28T01:10:19.069Z,1.60
2022-07-28T01:13:04.569Z,1.25
2022-07-28T01:15:34.804Z,1.80
2022-07-28T01:18:11.539Z,1.50
2022-07-28T01:20:48.013Z,1.58
2022-07-28T01:23:20.986Z,1.35
2022-07-28T01:25:57.216Z,1.88
2022-07-28T01:28:32.535Z,1.30
2022-07-28T01:31:07.067Z,1.50
2022-07-28T01:33:36.159Z,1.58
2022-07-28T01:36:05.315Z,1.30
2022-07-28T01:38:33.131Z,1.73
2022-07-28T01:41:01.303Z,1.73
2022-07-28T01:43:31.687Z,1.80
2022-07-28T01:45:59.240Z,1.33
2022-07-28T01:48:27.659Z,1.60
2022-07-28T01:50:55.631Z,1.42
2022-07-28T01:53:23.996Z,1.70
2022-07-28T01:55:52.076Z,1.83
2022-07-28T01:58:20.568Z,1.63
2022-07-28T02:00:52.367Z,1.75
2022-07-28T02:03:22.338Z,1.80
2022-07-28T02:05:52.750Z,2.33
2022-07-28T02:08:20.637Z,1.65
2022-07-28T02:11:09.771Z,1.90
2022-07-28T02:13:38.355Z,1.70
2022-07-28T02:16:07.572Z,1.40
2022-07-28T02:18:37.691Z,1.55
2022-07-28T02:21:06.990Z,1.50
2022-07-28T02:23:34.995Z,1.63
2022-07-28T02:26:03.530Z,1.60
2022-07-28T02:28:31.452Z,1.45
2022-07-28T02:31:10.577Z,1.80
2022-07-28T02:34:00.060Z,1.98
2022-07-28T02:36:32.884Z,2.70
2022-07-28T02:39:06.391Z,2.25
2022-07-28T02:41:39.176Z,2.60
2022-07-28T02:44:13.062Z,2.30
2022-07-28T02:46:43.376Z,2.58
2022-07-28T02:49:30.258Z,2.47
2022-07-28T02:51:58.215Z,2.60
2022-07-28T02:54:28.996Z,2.50
2022-07-28T02:56:57.732Z,2.10
2022-07-28T02:59:28.041Z,2.15
2022-07-28T03:01:55.980Z,2.38
2022-07-28T03:04:41.263Z,2.00
2022-07-28T03:07:08.948Z,2.20
2022-07-28T03:09:42.988Z,1.77
2022-07-28T03:12:11.281Z,1.80
2022-07-28T03:14:38.020Z,2.13
2022-07-28T03:17:05.088Z,1.95
2022-07-28T03:19:31.794Z,2.10
2022-07-28T03:21:58.312Z,1.60
2022-07-28T03:24:27.030Z,1.77
2022-07-28T03:26:59.763Z,1.88
2022-07-28T03:29:27.882Z,1.92
2022-07-28T03:31:55.489Z,1.98
2022-07-28T03:34:25.349Z,2.33
2022-07-28T03:36:56.049Z,1.95
2022-07-28T03:39:24.739Z,2.20
2022-07-28T03:41:52.539Z,1.95
2022-07-28T03:44:27.983Z,2.00
2022-07-28T03:46:56.308Z,2.30
2022-07-28T03:49:22.972Z,2.03
2022-07-28T03:51:49.735Z,2.17
2022-07-28T03:54:17.661Z,2.13
2022-07-28T03:56:45.257Z,2.38
2022-07-28T03:59:11.882Z,1.98
2022-07-28T04:01:38.540Z,2.28
2022-07-28T04:04:05.665Z,2.17
2022-07-28T04:06:38.622Z,2.60
2022-07-28T04:09:06.668Z,2.25
2022-07-28T04:11:37.725Z,2.30
2022-07-28T04:14:04.448Z,2.10
2022-07-28T04:16:31.148Z,2.30
2022-07-28T04:19:00.285Z,2.28
2022-07-28T04:21:27.524Z,2.30
2022-07-28T04:23:58.488Z,2.58
2022-07-28T04:26:29.346Z,2.03
2022-07-28T04:28:55.966Z,2.15
2022-07-28T04:31:23.417Z,2.28
2022-07-28T04:33:52.813Z,2.00
2022-07-28T04:36:19.408Z,2.05
2022-07-28T04:38:46.172Z,2.10
2022-07-28T04:41:14.118Z,2.05
2022-07-28T04:43:41.267Z,2.67
2022-07-28T04:46:11.994Z,2.17
2022-07-28T04:48:42.794Z,2.33
2022-07-28T04:51:09.961Z,2.58
2022-07-28T04:53:38.701Z,2.22
2022-07-28T04:56:05.453Z,3.00
2022-07-28T04:58:33.469Z,2.67
2022-07-28T05:01:02.271Z,2.40
2022-07-28T05:03:35.753Z,2.33
2022-07-28T05:06:03.453Z,2.38
2022-07-28T05:08:30.686Z,2.40
2022-07-28T05:10:57.790Z,2.25
2022-07-28T05:13:27.783Z,2.05
2022-07-28T05:15:58.463Z,2.42
2022-07-28T05:18:25.038Z,2.35
2022-07-28T05:20:54.544Z,2.17
2022-07-28T05:23:21.114Z,2.50
2022-07-28T05:25:47.662Z,2.47
2022-07-28T05:28:17.157Z,2.95
2022-07-28T05:30:46.830Z,2.80
2022-07-28T05:33:14.995Z,2.80
2022-07-28T05:35:41.531Z,2.60
2022-07-28T05:38:10.923Z,3.22
2022-07-28T05:40:37.948Z,3.20
2022-07-28T05:43:04.566Z,2.70
2022-07-28T05:45:33.999Z,2.90
2022-07-28T05:48:00.763Z,2.90
2022-07-28T05:50:27.330Z,2.35
2022-07-28T05:52:54.189Z,2.65
2022-07-28T05:55:21.034Z,3.30
2022-07-28T05:57:50.531Z,2.72
2022-07-28T06:00:19.084Z,2.80
2022-07-28T06:02:47.208Z,2.55
2022-07-28T06:05:14.192Z,2.50
2022-07-28T06:07:42.733Z,2.50
2022-07-28T06:10:14.969Z,2.40
2022-07-28T06:12:47.792Z,2.47
2022-07-28T06:15:22.190Z,2.88
2022-07-28T06:17:52.470Z,2.78
2022-07-28T06:20:19.772Z,2.72
2022-07-28T06:22:50.292Z,2.63
2022-07-28T06:25:17.927Z,2.97
2022-07-28T06:27:52.159Z,2.58
2022-07-28T06:30:19.089Z,2.80
2022-07-28T06:32:46.493Z,2.38
2022-07-28T06:35:17.026Z,2.65
2022-07-28T06:37:44.106Z,2.53
2022-07-28T06:40:12.190Z,2.50
2022-07-28T06:42:39.669Z,2.30
2022-07-28T06:45:07.114Z,2.50
2022-07-28T06:47:33.882Z,2.38
2022-07-28T06:50:00.571Z,2.45
2022-07-28T06:52:30.376Z,2.38
2022-07-28T06:55:02.333Z,2.90
2022-07-28T06:57:33.594Z,2.63
2022-07-28T07:00:02.472Z,2.25
2022-07-28T07:02:36.378Z,2.40
2022-07-28T07:05:04.424Z,2.28
2022-07-28T07:07:31.737Z,1.80
2022-07-28T07:09:58.564Z,1.85
2022-07-28T07:12:25.146Z,2.00
2022-07-28T07:14:51.725Z,2.10
2022-07-28T07:17:18.263Z,1.88
2022-07-28T07:19:44.792Z,2.33
2022-07-28T07:22:13.582Z,1.92
2022-07-28T07:24:40.131Z,1.52
2022-07-28T07:27:08.641Z,2.13
2022-07-28T07:29:35.164Z,1.80
2022-07-28T07:32:06.951Z,2.10
2022-07-28T07:34:39.655Z,2.60
2022-07-28T07:37:08.166Z,1.80
2022-07-28T07:39:35.202Z,1.48
2022-07-28T07:42:01.806Z,2.00
2022-07-28T07:44:28.351Z,2.05
2022-07-28T07:46:55.258Z,1.83
2022-07-28T07:49:22.343Z,1.60
2022-07-28T07:51:49.045Z,2.08
2022-07-28T07:54:16.153Z,2.10
2022-07-28T07:56:43.283Z,1.65
2022-07-28T07:59:14.002Z,1.58
2022-07-28T08:01:42.583Z,1.63
2022-07-28T08:04:09.355Z,1.63
2022-07-28T08:06:35.963Z,1.70
2022-07-28T08:09:02.660Z,1.60
2022-07-28T08:11:29.554Z,1.60
2022-07-28T08:13:57.765Z,1.83
2022-07-28T08:16:24.863Z,1.70
2022-07-28T08:18:53.547Z,1.58
2022-07-28T08:21:20.151Z,1.30
2022-07-28T08:23:49.535Z,1.58
2022-07-28T08:26:16.043Z,1.40
2022-07-28T08:28:42.671Z,2.05
2022-07-28T08:31:10.413Z,1.35
2022-07-28T08:33:53.266Z,1.40
2022-07-28T08:36:23.217Z,1.92
2022-07-28T08:38:50.221Z,1.10
2022-07-28T08:41:19.358Z,1.35
2022-07-28T08:43:47.709Z,1.77
2022-07-28T08:46:14.716Z,1.80
2022-07-28T08:48:42.899Z,1.40
2022-07-28T08:51:11.317Z,1.33
2022-07-28T08:53:38.634Z,1.90
2022-07-28T08:56:06.402Z,1.23
2022-07-28T08:58:33.942Z,1.58
2022-07-28T09:01:01.064Z,1.60
2022-07-28T09:03:30.779Z,1.52
2022-07-28T09:05:57.926Z,1.42
2022-07-28T09:08:27.150Z,1.80
2022-07-28T09:10:53.758Z,1.58
2022-07-28T09:13:20.459Z,1.13
2022-07-28T09:15:47.342Z,1.40
2022-07-28T09:18:15.221Z,1.60
2022-07-28T09:20:43.285Z,1.30
2022-07-28T09:23:42.315Z,1.10
2022-07-28T09:26:12.096Z,1.63
2022-07-28T09:28:55.739Z,1.20
2022-07-28T09:31:23.758Z,1.23
2022-07-28T09:34:18.375Z,1.20
2022-07-28T09:36:45.061Z,0.93
2022-07-28T09:39:11.630Z,1.13
2022-07-28T09:41:50.767Z,0.95
2022-07-28T09:44:21.202Z,1.40
2022-07-28T09:46:48.175Z,1.23
2022-07-28T09:49:14.980Z,1.20
2022-07-28T09:51:42.072Z,1.55
2022-07-28T09:54:08.654Z,0.90
2022-07-28T09:56:35.892Z,0.93
2022-07-28T09:59:03.731Z,1.00
2022-07-28T10:01:36.773Z,1.05
2022-07-28T10:04:03.868Z,1.33
2022-07-28T10:06:32.981Z,0.95
2022-07-28T10:09:07.376Z,0.95
2022-07-28T10:11:39.298Z,1.73
2022-07-28T10:14:11.524Z,0.95
2022-07-28T10:16:47.395Z,1.30
2022-07-28T10:19:15.874Z,1.20
2022-07-28T10:21:50.109Z,1.50
2022-07-28T10:24:25.537Z,1.42
2022-07-28T10:26:55.691Z,1.20
2022-07-28T10:29:23.696Z,1.00
2022-07-28T10:31:56.688Z,1.60
2022-07-28T10:34:25.544Z,1.33
2022-07-28T10:36:56.381Z,1.33
2022-07-28T10:39:26.048Z,1.40
2022-07-28T10:41:53.018Z,1.75
2022-07-28T10:44:20.307Z,1.60
2022-07-28T10:46:47.206Z,1.25
2022-07-28T10:49:14.957Z,1.40
2022-07-28T10:52:05.034Z,1.23
2022-07-28T10:54:36.582Z,1.33
2022-07-28T10:57:05.173Z,1.50
2022-07-28T10:59:45.351Z,1.67
2022-07-28T11:02:31.015Z,1.30
2022-07-28T11:05:02.142Z,1.20
2022-07-28T11:07:37.597Z,1.70
2022-07-28T11:10:17.125Z,1.65
2022-07-28T11:12:53.755Z,1.33
2022-07-28T11:15:32.182Z,1.40
2022-07-28T11:18:10.691Z,1.55
2022-07-28T11:21:00.501Z,1.50
2022-07-28T11:23:36.528Z,1.10
2022-07-28T11:26:24.316Z,1.40
2022-07-28T11:29:01.045Z,1.13
2022-07-28T11:31:48.144Z,1.23
2022-07-28T11:34:16.000Z,1.25
2022-07-28T11:37:10.203Z,1.90
2022-07-28T11:39:44.091Z,1.30
2022-07-28T11:42:31.191Z,1.20
2022-07-28T11:45:17.771Z,1.35
2022-07-28T11:47:45.167Z,1.35
2022-07-28T11:50:12.993Z,1.30
2022-07-28T11:52:55.432Z,1.70
2022-07-28T11:55:55.294Z,1.58
2022-07-28T11:58:25.574Z,1.30
2022-07-28T12:01:17.764Z,1.80
2022-07-28T12:03:49.924Z,2.38
2022-07-28T12:06:28.918Z,1.58
2022-07-28T12:08:58.116Z,1.58
2022-07-28T12:11:25.787Z,1.25
2022-07-28T12:14:00.986Z,1.17
2022-07-28T12:16:31.785Z,1.63
2022-07-28T12:19:00.611Z,1.15
2022-07-28T12:21:49.429Z,0.90
2022-07-28T12:24:21.751Z,1.00
2022-07-28T12:26:50.757Z,1.20
2022-07-28T12:29:20.683Z,1.38
2022-07-28T12:32:06.710Z,1.20
2022-07-28T12:34:35.049Z,1.55
2022-07-28T12:37:04.876Z,1.48
2022-07-28T12:39:34.301Z,1.40
2022-07-28T12:42:07.983Z,1.40
2022-07-28T12:44:35.596Z,1.10
2022-07-28T12:47:02.925Z,1.00
2022-07-28T12:49:33.967Z,1.30
2022-07-28T12:52:14.277Z,1.23
2022-07-28T12:54:41.979Z,1.45
2022-07-28T12:57:41.216Z,1.25
2022-07-28T13:00:11.694Z,1.35
2022-07-28T13:02:43.570Z,1.33
2022-07-28T13:05:11.317Z,1.20
2022-07-28T13:07:43.505Z,1.35
2022-07-28T13:10:12.330Z,1.45
2022-07-28T13:12:43.792Z,1.30
2022-07-28T13:15:16.849Z,1.30
2022-07-28T13:17:53.463Z,1.48
2022-07-28T13:20:20.760Z,1.00
2022-07-28T13:22:47.385Z,1.48
2022-07-28T13:25:14.290Z,1.20
2022-07-28T13:27:42.276Z,1.23
2022-07-28T13:30:09.854Z,1.20
2022-07-28T13:32:47.290Z,1.40
2022-07-28T13:35:15.182Z,1.33
2022-07-28T13:37:42.485Z,1.30
2022-07-28T13:40:09.441Z,1.60
2022-07-28T13:42:37.170Z,1.60
2022-07-28T13:45:05.977Z,1.30
2022-07-28T13:47:35.499Z,1.50
2022-07-28T13:50:11.170Z,1.20
2022-07-28T13:52:39.087Z,1.40
2022-07-28T13:55:07.859Z,1.48
2022-07-28T13:57:36.857Z,1.10
2022-07-28T14:00:08.364Z,1.13
2022-07-28T14:02:44.237Z,1.25
2022-07-28T14:05:13.549Z,1.65
2022-07-28T14:07:48.946Z,1.40
2022-07-28T14:10:20.033Z,1.05
2022-07-28T14:12:53.398Z,1.40
2022-07-28T14:15:20.985Z,1.60
2022-07-28T14:17:48.307Z,1.25
2022-07-28T14:20:16.154Z,1.15
2022-07-28T14:22:44.138Z,1.58
2022-07-28T14:25:20.881Z,1.63
2022-07-28T14:27:48.505Z,1.20
2022-07-28T14:30:15.890Z,1.40
2022-07-28T14:32:43.016Z,1.63
2022-07-28T14:35:11.106Z,1.30
2022-07-28T14:37:55.503Z,1.80
2022-07-28T14:40:24.718Z,1.65
2022-07-28T14:42:51.712Z,1.20
2022-07-28T14:45:18.991Z,1.30
2022-07-28T14:47:45.813Z,1.35
2022-07-28T14:50:14.002Z,1.27
2022-07-28T14:52:40.888Z,1.40
2022-07-28T14:55:13.691Z,1.20
2022-07-28T14:57:50.292Z,1.48
2022-07-28T15:00:36.011Z,1.52
2022-07-28T15:03:04.743Z,1.50
2022-07-28T15:05:34.564Z,1.23
2022-07-28T15:08:06.829Z,1.38
2022-07-28T15:10:42.446Z,1.45
2022-07-28T15:13:09.121Z,1.75
2022-07-28T15:15:40.441Z,1.70
2022-07-28T15:18:11.468Z,1.77
2022-07-28T15:20:41.293Z,1.52
2022-07-28T15:23:10.134Z,1.20
2022-07-28T15:25:37.918Z,1.20
2022-07-28T15:28:04.971Z,1.35
2022-07-28T15:30:31.826Z,1.27
2022-07-28T15:33:03.809Z,1.30
2022-07-28T15:35:58.802Z,1.58
2022-07-28T15:38:17.243Z,1.40
2022-07-28T15:40:44.148Z,2.20
2022-07-28T15:43:23.858Z,1.60
2022-07-28T15:45:55.020Z,1.58
2022-07-28T15:48:22.589Z,1.42
2022-07-28T15:50:50.673Z,1.15
2022-07-28T15:53:17.424Z,1.20
2022-07-28T15:55:48.929Z,1.73
2022-07-28T15:58:18.806Z,1.23
2022-07-28T16:00:47.215Z,1.35
2022-07-28T16:03:14.003Z,1.20
2022-07-28T16:05:41.125Z,1.40
2022-07-28T16:08:10.038Z,1.33
2022-07-28T16:10:36.734Z,1.20
2022-07-28T16:13:03.419Z,1.50
2022-07-28T16:15:30.681Z,1.55
2022-07-28T16:17:58.501Z,1.20
2022-07-28T16:20:27.208Z,1.40
2022-07-28T16:22:55.458Z,1.27
2022-07-28T16:25:24.584Z,1.25
2022-07-28T16:27:54.433Z,1.40
2022-07-28T16:30:22.454Z,1.30
2022-07-28T16:32:49.537Z,1.58
2022-07-28T16:35:16.329Z,1.67
2022-07-28T16:37:43.078Z,1.65
2022-07-28T16:40:13.490Z,1.30
2022-07-28T16:42:41.202Z,1.55
2022-07-28T16:45:11.622Z,1.60
2022-07-28T16:47:38.240Z,1.50
2022-07-28T16:50:05.102Z,1.27
2022-07-28T16:52:37.932Z,1.35
2022-07-28T16:55:04.831Z,1.35
2022-07-28T16:57:31.429Z,1.35
2022-07-28T16:59:58.060Z,1.67
2022-07-28T17:02:25.538Z,1.50
2022-07-28T17:04:53.862Z,1.63
2022-07-28T17:07:20.611Z,1.40
2022-07-28T17:09:47.253Z,2.13
2022-07-28T17:12:13.815Z,1.20
2022-07-28T17:14:40.733Z,1.27
2022-07-28T17:17:09.159Z,1.30
2022-07-28T17:19:36.103Z,1.17
2022-07-28T17:22:07.232Z,1.30
2022-07-28T17:24:34.393Z,1.45
2022-07-28T17:29:49.921Z,1.15
2022-07-28T17:32:16.682Z,1.20
2022-07-28T17:34:44.723Z,1.55
2022-07-28T17:37:12.726Z,1.38
2022-07-28T17:39:39.277Z,1.10
2022-07-28T17:42:05.894Z,1.63
2022-07-28T17:44:33.891Z,1.40
2022-07-28T17:47:05.977Z,1.50
2022-07-28T17:49:37.214Z,1.33
2022-07-28T17:52:08.204Z,1.17
2022-07-28T17:54:56.613Z,1.25
2022-07-28T17:57:24.257Z,1.40
2022-07-28T17:59:56.127Z,1.50
2022-07-28T18:02:23.289Z,1.67
2022-07-28T18:04:49.999Z,1.15
2022-07-28T18:07:16.832Z,1.23
2022-07-28T18:09:48.678Z,1.52
2022-07-28T18:12:15.301Z,1.60
2022-07-28T18:14:43.087Z,1.48
2022-07-28T18:17:09.678Z,1.27
2022-07-28T18:19:45.420Z,1.40
2022-07-28T18:22:12.299Z,1.15
2022-07-28T18:24:42.664Z,1.20
2022-07-28T18:27:10.919Z,1.15
2022-07-28T18:29:38.264Z,1.38
2022-07-28T18:32:10.238Z,1.40
2022-07-28T18:34:37.058Z,1.65
2022-07-28T18:37:05.965Z,1.60
2022-07-28T18:39:33.409Z,1.17
2022-07-28T18:42:00.395Z,1.20
2022-07-28T18:44:27.260Z,1.40
2022-07-28T18:47:01.381Z,1.30
2022-07-28T18:49:28.735Z,1.10
2022-07-28T18:52:04.243Z,1.30
2022-07-28T18:54:32.024Z,1.50
2022-07-28T18:56:59.267Z,1.15
2022-07-28T18:59:27.383Z,1.75
2022-07-28T19:01:55.730Z,1.30
2022-07-28T19:04:23.174Z,1.52
2022-07-28T19:06:49.903Z,1.10
2022-07-28T19:09:16.578Z,1.20
2022-07-28T19:11:46.226Z,1.73
2022-07-28T19:14:14.945Z,1.30
2022-07-28T19:16:42.028Z,1.20
2022-07-28T19:19:08.782Z,1.48
2022-07-28T19:21:36.570Z,1.25
2022-07-28T19:24:04.698Z,1.50
2022-07-28T19:26:31.404Z,1.45
2022-07-28T19:28:58.407Z,1.63
2022-07-28T19:31:26.026Z,1.40
2022-07-28T19:33:53.701Z,1.40
2022-07-28T19:36:21.145Z,1.40
2022-07-28T19:38:47.924Z,1.40
2022-07-28T19:41:14.568Z,1.15
2022-07-28T19:43:41.843Z,1.40
2022-07-28T19:46:08.684Z,1.02
2022-07-28T19:48:35.624Z,1.30
2022-07-28T19:51:02.543Z,1.67
2022-07-28T19:53:32.354Z,1.30
2022-07-28T19:56:01.273Z,1.15
2022-07-28T19:58:28.431Z,1.08
2022-07-28T20:00:56.496Z,2.00
2022-07-28T20:04:00.784Z,1.30
2022-07-28T20:06:11.746Z,1.65
2022-07-28T20:08:38.334Z,1.30
2022-07-28T20:11:04.991Z,1.05
2022-07-28T20:13:31.550Z,1.20
2022-07-28T20:15:58.161Z,1.10
2022-07-28T20:18:24.734Z,1.63
2022-07-28T20:20:51.433Z,1.35
2022-07-28T20:23:18.013Z,1.83
2022-07-28T20:25:45.357Z,1.27
2022-07-28T20:28:12.455Z,1.40
2022-07-28T20:30:39.492Z,1.35
2022-07-28T20:33:07.908Z,1.45
2022-07-28T20:35:34.437Z,1.20
2022-07-28T20:38:01.549Z,1.27
2022-07-28T20:40:28.114Z,1.40
2022-07-28T20:42:54.776Z,1.48
2022-07-28T20:45:21.425Z,1.17
2022-07-28T20:47:48.320Z,1.15
2022-07-28T20:50:15.715Z,1.42
2022-07-28T20:52:42.276Z,1.50
2022-07-28T20:55:11.256Z,1.40
2022-07-28T20:57:38.058Z,1.02
2022-07-28T21:00:05.664Z,1.52
2022-07-28T21:02:32.325Z,1.30
2022-07-28T21:04:59.892Z,1.48
2022-07-28T21:08:05.007Z,1.10
2022-07-28T21:10:14.161Z,1.42
2022-07-28T21:12:41.376Z,1.35
2022-07-28T21:15:08.617Z,1.58
2022-07-28T21:17:35.446Z,1.40
2022-07-28T21:20:01.999Z,1.20
2022-07-28T21:22:28.712Z,1.25
2022-07-28T21:24:55.876Z,1.50
2022-07-28T21:27:22.790Z,1.42
2022-07-28T21:29:49.445Z,1.38
2022-07-28T21:32:16.228Z,1.45
2022-07-28T21:34:42.707Z,1.90
2022-07-28T21:37:11.478Z,1.20
2022-07-28T21:39:39.034Z,1.38
2022-07-28T21:42:08.371Z,1.15
2022-07-28T21:44:35.702Z,1.30
2022-07-28T21:47:02.236Z,1.75
2022-07-28T21:49:30.536Z,1.60
2022-07-28T21:51:57.084Z,1.33
2022-07-28T21:54:24.214Z,1.10
2022-07-28T21:56:51.324Z,1.98
2022-07-28T21:59:17.856Z,1.50
2022-07-28T22:01:44.477Z,1.35
2022-07-28T22:04:11.118Z,1.20
2022-07-28T22:06:37.689Z,1.45
2022-07-28T22:09:04.320Z,1.40
2022-07-28T22:11:30.912Z,1.30
2022-07-28T22:13:57.544Z,1.50
2022-07-28T22:16:24.604Z,1.40
2022-07-28T22:18:51.212Z,1.50
2022-07-28T22:21:17.986Z,1.23
2022-07-28T22:23:44.696Z,1.40
2022-07-28T22:26:11.297Z,1.20
2022-07-28T22:28:37.889Z,1.38
2022-07-28T22:31:09.462Z,1.30
2022-07-28T22:33:37.432Z,1.60
2022-07-28T22:36:04.521Z,1.30
2022-07-28T22:38:31.289Z,1.60
2022-07-28T22:40:58.772Z,1.70
2022-07-28T22:43:25.320Z,1.27
2022-07-28T22:45:51.977Z,2.25
2022-07-28T22:48:18.961Z,1.45
2022-07-28T22:50:45.599Z,1.48
2022-07-28T22:53:12.225Z,1.33
2022-07-28T22:55:39.593Z,1.40
2022-07-28T22:58:06.240Z,1.10
2022-07-28T23:00:32.882Z,1.40
2022-07-28T23:03:03.077Z,1.58
2022-07-28T23:05:30.541Z,1.42
2022-07-28T23:07:58.754Z,1.30
2022-07-28T23:10:25.839Z,1.55
2022-07-28T23:12:52.391Z,1.70
2022-07-28T23:15:19.015Z,1.75
2022-07-28T23:17:45.572Z,1.65
2022-07-28T23:20:12.183Z,1.52
2022-07-28T23:22:38.748Z,1.27
2022-07-28T23:25:05.556Z,1.30
2022-07-28T23:27:32.156Z,1.42
2022-07-28T23:29:58.687Z,1.42
2022-07-28T23:32:25.263Z,1.70
2022-07-28T23:34:51.820Z,1.50
2022-07-28T23:37:18.496Z,1.48
2022-07-28T23:39:45.120Z,1.60
2022-07-28T23:42:11.687Z,1.60
2022-07-28T23:44:38.200Z,1.52
2022-07-28T23:47:04.881Z,2.03
2022-07-28T23:49:31.466Z,1.70
2022-07-28T23:51:58.008Z,0.95
2022-07-28T23:54:24.546Z,1.60
2022-07-28T23:56:51.867Z,1.30
2022-07-28T23:59:18.401Z,1.60
